sensor_id;sensor_type;location;lat;lon;timestamp;pressure;altitude;pressure_sealevel;temperature;humidity
19128;BME280;9696;53.686;10.094;2023-06-04T00:01:15;102089.53;;;8.65;100.00
19128;BME280;9696;53.686;10.094;2023-06-04T00:03:45;102082.41;;;8.67;100.00
19128;BME280;9696;53.686;10.094;2023-06-04T00:06:14;102090.78;;;8.58;100.00
19128;BME280;9696;53.686;10.094;2023-06-04T00:08:43;102093.56;;;8.55;100.00
19128;BME280;9696;53.686;10.094;2023-06-04T00:11:13;102090.22;;;8.37;100.00
19128;BME280;9696;53.686;10.094;2023-06-04T00:13:42;102090.53;;;8.31;100.00
19128;BME280;9696;53.686;10.094;2023-06-04T00:16:13;102088.66;;;8.01;100.00
19128;BME280;9696;53.686;10.094;2023-06-04T00:18:42;102093.28;;;7.96;100.00
19128;BME280;9696;53.686;10.094;2023-06-04T00:21:11;102097.06;;;7.91;100.00
19128;BME280;9696;53.686;10.094;2023-06-04T00:23:41;102100.94;;;7.99;100.00
19128;BME280;9696;53.686;10.094;2023-06-04T00:26:10;102091.16;;;8.36;100.00
19128;BME280;9696;53.686;10.094;2023-06-04T00:28:44;102087.66;;;8.51;100.00
19128;BME280;9696;53.686;10.094;2023-06-04T00:31:14;102082.06;;;8.26;100.00
19128;BME280;9696;53.686;10.094;2023-06-04T00:33:43;102086.22;;;8.14;100.00
19128;BME280;9696;53.686;10.094;2023-06-04T00:36:13;102084.13;;;8.21;100.00
19128;BME280;9696;53.686;10.094;2023-06-04T00:38:42;102079.47;;;8.41;100.00
19128;BME280;9696;53.686;10.094;2023-06-04T00:41:11;102075.94;;;8.42;100.00
19128;BME280;9696;53.686;10.094;2023-06-04T00:43:40;102081.09;;;8.60;100.00
19128;BME280;9696;53.686;10.094;2023-06-04T00:46:15;102069.59;;;8.62;100.00
19128;BME280;9696;53.686;10.094;2023-06-04T00:48:46;102063.09;;;8.53;100.00
19128;BME280;9696;53.686;10.094;2023-06-04T00:51:15;102072.91;;;8.34;100.00
19128;BME280;9696;53.686;10.094;2023-06-04T00:53:45;102075.75;;;7.98;100.00
19128;BME280;9696;53.686;10.094;2023-06-04T00:56:14;102071.28;;;8.00;100.00
19128;BME280;9696;53.686;10.094;2023-06-04T00:58:45;102072.81;;;8.04;100.00
19128;BME280;9696;53.686;10.094;2023-06-04T01:01:22;102066.84;;;8.34;100.00
19128;BME280;9696;53.686;10.094;2023-06-04T01:03:55;102074.53;;;8.52;100.00
19128;BME280;9696;53.686;10.094;2023-06-04T01:06:31;102065.31;;;8.30;100.00
19128;BME280;9696;53.686;10.094;2023-06-04T01:09:05;102067.91;;;7.98;100.00
19128;BME280;9696;53.686;10.094;2023-06-04T01:11:35;102083.25;;;7.56;100.00
19128;BME280;9696;53.686;10.094;2023-06-04T01:14:07;102084.22;;;7.38;100.00
19128;BME280;9696;53.686;10.094;2023-06-04T01:16:42;102089.72;;;7.32;100.00
19128;BME280;9696;53.686;10.094;2023-06-04T01:19:24;102094.19;;;7.30;100.00
19128;BME280;9696;53.686;10.094;2023-06-04T01:22:04;102084.09;;;7.56;100.00
19128;BME280;9696;53.686;10.094;2023-06-04T01:24:46;102091.25;;;7.86;100.00
19128;BME280;9696;53.686;10.094;2023-06-04T01:27:21;102091.28;;;8.01;100.00
19128;BME280;9696;53.686;10.094;2023-06-04T01:29:50;102082.19;;;8.09;100.00
19128;BME280;9696;53.686;10.094;2023-06-04T01:32:22;102079.31;;;8.13;100.00
19128;BME280;9696;53.686;10.094;2023-06-04T01:34:52;102086.06;;;8.17;100.00
19128;BME280;9696;53.686;10.094;2023-06-04T01:37:21;102085.47;;;8.28;100.00
19128;BME280;9696;53.686;10.094;2023-06-04T01:39:50;102080.84;;;8.17;100.00
19128;BME280;9696;53.686;10.094;2023-06-04T01:42:19;102076.53;;;8.00;100.00
19128;BME280;9696;53.686;10.094;2023-06-04T01:44:48;102081.72;;;7.85;100.00
19128;BME280;9696;53.686;10.094;2023-06-04T01:47:17;102083.97;;;7.75;100.00
19128;BME280;9696;53.686;10.094;2023-06-04T01:49:48;102084.41;;;7.83;100.00
19128;BME280;9696;53.686;10.094;2023-06-04T01:52:17;102075.66;;;8.00;100.00
19128;BME280;9696;53.686;10.094;2023-06-04T01:54:48;102077.19;;;8.04;100.00
19128;BME280;9696;53.686;10.094;2023-06-04T01:57:20;102084.59;;;7.96;100.00
19128;BME280;9696;53.686;10.094;2023-06-04T01:59:49;102083.94;;;7.92;100.00
19128;BME280;9696;53.686;10.094;2023-06-04T02:02:19;102084.78;;;7.93;100.00
19128;BME280;9696;53.686;10.094;2023-06-04T02:04:50;102077.38;;;8.01;100.00
19128;BME280;9696;53.686;10.094;2023-06-04T02:07:19;102075.44;;;8.04;100.00
19128;BME280;9696;53.686;10.094;2023-06-04T02:09:49;102077.69;;;7.95;100.00
19128;BME280;9696;53.686;10.094;2023-06-04T02:12:19;102068.91;;;7.96;100.00
19128;BME280;9696;53.686;10.094;2023-06-04T02:14:48;102074.41;;;8.07;100.00
19128;BME280;9696;53.686;10.094;2023-06-04T02:17:18;102073.84;;;8.18;100.00
19128;BME280;9696;53.686;10.094;2023-06-04T02:19:48;102067.84;;;8.00;100.00
19128;BME280;9696;53.686;10.094;2023-06-04T02:22:19;102080.28;;;7.79;100.00
19128;BME280;9696;53.686;10.094;2023-06-04T02:24:48;102072.34;;;7.65;100.00
19128;BME280;9696;53.686;10.094;2023-06-04T02:27:17;102076.50;;;7.52;100.00
19128;BME280;9696;53.686;10.094;2023-06-04T02:29:46;102069.41;;;7.38;100.00
19128;BME280;9696;53.686;10.094;2023-06-04T02:32:16;102075.47;;;7.22;100.00
19128;BME280;9696;53.686;10.094;2023-06-04T02:34:45;102078.53;;;7.13;100.00
19128;BME280;9696;53.686;10.094;2023-06-04T02:37:15;102081.69;;;7.19;100.00
19128;BME280;9696;53.686;10.094;2023-06-04T02:39:45;102081.84;;;7.33;100.00
19128;BME280;9696;53.686;10.094;2023-06-04T02:42:14;102073.78;;;7.21;100.00
19128;BME280;9696;53.686;10.094;2023-06-04T02:44:43;102083.00;;;7.10;100.00
19128;BME280;9696;53.686;10.094;2023-06-04T02:47:12;102073.56;;;7.08;100.00
19128;BME280;9696;53.686;10.094;2023-06-04T02:49:41;102079.25;;;6.99;100.00
19128;BME280;9696;53.686;10.094;2023-06-04T02:52:10;102079.38;;;6.96;100.00
19128;BME280;9696;53.686;10.094;2023-06-04T02:54:41;102079.16;;;7.00;100.00
19128;BME280;9696;53.686;10.094;2023-06-04T02:57:10;102083.88;;;7.11;100.00
19128;BME280;9696;53.686;10.094;2023-06-04T02:59:39;102074.56;;;7.05;100.00
19128;BME280;9696;53.686;10.094;2023-06-04T03:02:08;102078.72;;;7.09;100.00
19128;BME280;9696;53.686;10.094;2023-06-04T03:04:38;102071.50;;;7.15;100.00
19128;BME280;9696;53.686;10.094;2023-06-04T03:07:08;102073.31;;;7.13;100.00
19128;BME280;9696;53.686;10.094;2023-06-04T03:09:40;102072.31;;;7.15;100.00
19128;BME280;9696;53.686;10.094;2023-06-04T03:12:10;102073.09;;;7.17;100.00
19128;BME280;9696;53.686;10.094;2023-06-04T03:14:39;102070.41;;;7.01;100.00
19128;BME280;9696;53.686;10.094;2023-06-04T03:17:08;102064.81;;;6.92;100.00
19128;BME280;9696;53.686;10.094;2023-06-04T03:19:39;102067.34;;;6.76;100.00
19128;BME280;9696;53.686;10.094;2023-06-04T03:22:09;102062.44;;;6.70;100.00
19128;BME280;9696;53.686;10.094;2023-06-04T03:24:40;102064.66;;;6.78;100.00
19128;BME280;9696;53.686;10.094;2023-06-04T03:27:11;102061.59;;;6.87;100.00
19128;BME280;9696;53.686;10.094;2023-06-04T03:29:41;102066.56;;;6.91;100.00
19128;BME280;9696;53.686;10.094;2023-06-04T03:32:12;102066.56;;;6.91;100.00
19128;BME280;9696;53.686;10.094;2023-06-04T03:34:44;102067.78;;;6.84;100.00
19128;BME280;9696;53.686;10.094;2023-06-04T03:37:13;102063.38;;;6.86;100.00
19128;BME280;9696;53.686;10.094;2023-06-04T03:39:43;102072.50;;;6.95;100.00
19128;BME280;9696;53.686;10.094;2023-06-04T03:42:16;102067.56;;;6.89;100.00
19128;BME280;9696;53.686;10.094;2023-06-04T03:44:45;102072.72;;;6.90;100.00
19128;BME280;9696;53.686;10.094;2023-06-04T03:47:15;102069.78;;;6.96;100.00
19128;BME280;9696;53.686;10.094;2023-06-04T03:49:44;102066.66;;;7.07;100.00
19128;BME280;9696;53.686;10.094;2023-06-04T03:52:14;102066.75;;;7.05;100.00
19128;BME280;9696;53.686;10.094;2023-06-04T03:54:44;102067.13;;;6.98;100.00
19128;BME280;9696;53.686;10.094;2023-06-04T03:57:13;102071.56;;;6.96;100.00
19128;BME280;9696;53.686;10.094;2023-06-04T03:59:43;102070.50;;;7.00;100.00
19128;BME280;9696;53.686;10.094;2023-06-04T04:02:13;102078.31;;;7.17;100.00
19128;BME280;9696;53.686;10.094;2023-06-04T04:04:42;102071.31;;;7.35;100.00
19128;BME280;9696;53.686;10.094;2023-06-04T04:07:11;102075.13;;;7.62;100.00
19128;BME280;9696;53.686;10.094;2023-06-04T04:09:41;102074.38;;;7.76;100.00
19128;BME280;9696;53.686;10.094;2023-06-04T04:12:11;102077.34;;;7.85;100.00
19128;BME280;9696;53.686;10.094;2023-06-04T04:14:41;102076.69;;;8.13;100.00
19128;BME280;9696;53.686;10.094;2023-06-04T04:17:10;102069.78;;;8.28;100.00
19128;BME280;9696;53.686;10.094;2023-06-04T04:19:40;102077.03;;;8.38;100.00
19128;BME280;9696;53.686;10.094;2023-06-04T04:22:11;102068.69;;;8.47;100.00
19128;BME280;9696;53.686;10.094;2023-06-04T04:24:40;102073.16;;;8.61;100.00
19128;BME280;9696;53.686;10.094;2023-06-04T04:27:11;102073.53;;;8.69;100.00
19128;BME280;9696;53.686;10.094;2023-06-04T04:29:41;102065.50;;;8.88;100.00
19128;BME280;9696;53.686;10.094;2023-06-04T04:32:13;102063.56;;;9.06;100.00
19128;BME280;9696;53.686;10.094;2023-06-04T04:34:51;102069.84;;;9.17;100.00
19128;BME280;9696;53.686;10.094;2023-06-04T04:37:28;102067.25;;;9.17;100.00
19128;BME280;9696;53.686;10.094;2023-06-04T04:39:58;102062.66;;;9.21;100.00
19128;BME280;9696;53.686;10.094;2023-06-04T04:42:33;102064.00;;;9.42;100.00
19128;BME280;9696;53.686;10.094;2023-06-04T04:45:04;102065.88;;;9.82;100.00
19128;BME280;9696;53.686;10.094;2023-06-04T04:47:33;102063.03;;;10.14;100.00
19128;BME280;9696;53.686;10.094;2023-06-04T04:50:03;102062.44;;;10.37;100.00
19128;BME280;9696;53.686;10.094;2023-06-04T04:52:32;102057.94;;;10.66;100.00
19128;BME280;9696;53.686;10.094;2023-06-04T04:55:02;102059.28;;;10.98;100.00
19128;BME280;9696;53.686;10.094;2023-06-04T04:57:35;102059.91;;;11.14;100.00
19128;BME280;9696;53.686;10.094;2023-06-04T05:00:05;102056.97;;;11.44;100.00
19128;BME280;9696;53.686;10.094;2023-06-04T05:02:38;102055.41;;;11.42;100.00
19128;BME280;9696;53.686;10.094;2023-06-04T05:05:09;102056.34;;;11.28;100.00
19128;BME280;9696;53.686;10.094;2023-06-04T05:07:40;102055.19;;;11.45;100.00
19128;BME280;9696;53.686;10.094;2023-06-04T05:10:09;102049.53;;;11.25;100.00
19128;BME280;9696;53.686;10.094;2023-06-04T05:12:50;102053.41;;;11.45;100.00
19128;BME280;9696;53.686;10.094;2023-06-04T05:15:19;102055.91;;;11.59;100.00
19128;BME280;9696;53.686;10.094;2023-06-04T05:17:49;102053.47;;;11.94;100.00
19128;BME280;9696;53.686;10.094;2023-06-04T05:20:20;102057.91;;;12.17;100.00
19128;BME280;9696;53.686;10.094;2023-06-04T05:22:51;102054.25;;;12.67;100.00
19128;BME280;9696;53.686;10.094;2023-06-04T05:25:21;102055.78;;;12.94;100.00
19128;BME280;9696;53.686;10.094;2023-06-04T05:27:52;102052.91;;;12.97;100.00
19128;BME280;9696;53.686;10.094;2023-06-04T05:30:22;102049.59;;;12.71;100.00
19128;BME280;9696;53.686;10.094;2023-06-04T05:32:52;102050.63;;;13.38;100.00
19128;BME280;9696;53.686;10.094;2023-06-04T05:35:24;102045.72;;;13.45;100.00
19128;BME280;9696;53.686;10.094;2023-06-04T05:37:53;102048.09;;;13.26;100.00
19128;BME280;9696;53.686;10.094;2023-06-04T05:40:27;102052.56;;;13.69;100.00
19128;BME280;9696;53.686;10.094;2023-06-04T05:42:57;102065.25;;;13.76;100.00
19128;BME280;9696;53.686;10.094;2023-06-04T05:45:27;102063.81;;;13.83;100.00
19128;BME280;9696;53.686;10.094;2023-06-04T05:47:56;102060.44;;;14.14;100.00
19128;BME280;9696;53.686;10.094;2023-06-04T05:50:28;102049.03;;;13.36;100.00
19128;BME280;9696;53.686;10.094;2023-06-04T05:52:58;102058.78;;;13.35;100.00
19128;BME280;9696;53.686;10.094;2023-06-04T05:55:27;102056.41;;;13.65;100.00
19128;BME280;9696;53.686;10.094;2023-06-04T05:57:59;102053.50;;;14.02;100.00
19128;BME280;9696;53.686;10.094;2023-06-04T06:00:28;102061.06;;;13.84;100.00
19128;BME280;9696;53.686;10.094;2023-06-04T06:02:57;102051.16;;;14.42;100.00
19128;BME280;9696;53.686;10.094;2023-06-04T06:05:37;102052.56;;;14.46;100.00
19128;BME280;9696;53.686;10.094;2023-06-04T06:08:06;102047.31;;;14.35;100.00
19128;BME280;9696;53.686;10.094;2023-06-04T06:10:35;102055.28;;;14.55;100.00
19128;BME280;9696;53.686;10.094;2023-06-04T06:13:06;102053.97;;;14.61;100.00
19128;BME280;9696;53.686;10.094;2023-06-04T06:15:35;102057.53;;;14.92;100.00
19128;BME280;9696;53.686;10.094;2023-06-04T06:18:05;102055.22;;;14.35;100.00
19128;BME280;9696;53.686;10.094;2023-06-04T06:20:34;102055.13;;;14.68;100.00
19128;BME280;9696;53.686;10.094;2023-06-04T06:23:06;102058.50;;;14.91;100.00
19128;BME280;9696;53.686;10.094;2023-06-04T06:25:39;102063.91;;;15.10;100.00
19128;BME280;9696;53.686;10.094;2023-06-04T06:28:16;102053.25;;;15.21;100.00
19128;BME280;9696;53.686;10.094;2023-06-04T06:30:46;102057.97;;;15.38;100.00
19128;BME280;9696;53.686;10.094;2023-06-04T06:33:16;102062.03;;;14.80;100.00
19128;BME280;9696;53.686;10.094;2023-06-04T06:35:49;102056.50;;;15.25;100.00
19128;BME280;9696;53.686;10.094;2023-06-04T06:38:18;102059.91;;;15.36;100.00
19128;BME280;9696;53.686;10.094;2023-06-04T06:40:47;102060.31;;;14.58;100.00
19128;BME280;9696;53.686;10.094;2023-06-04T06:43:18;102063.09;;;14.89;100.00
19128;BME280;9696;53.686;10.094;2023-06-04T06:45:47;102063.78;;;15.93;100.00
19128;BME280;9696;53.686;10.094;2023-06-04T06:48:16;102059.00;;;16.36;100.00
19128;BME280;9696;53.686;10.094;2023-06-04T06:50:45;102057.94;;;16.68;100.00
19128;BME280;9696;53.686;10.094;2023-06-04T06:53:15;102069.03;;;15.74;100.00
19128;BME280;9696;53.686;10.094;2023-06-04T06:55:44;102062.63;;;16.26;100.00
19128;BME280;9696;53.686;10.094;2023-06-04T06:58:13;102075.06;;;16.44;100.00
19128;BME280;9696;53.686;10.094;2023-06-04T07:00:44;102076.47;;;15.89;100.00
19128;BME280;9696;53.686;10.094;2023-06-04T07:03:13;102074.38;;;16.42;100.00
19128;BME280;9696;53.686;10.094;2023-06-04T07:05:43;102067.50;;;16.40;100.00
19128;BME280;9696;53.686;10.094;2023-06-04T07:08:12;102067.16;;;16.04;100.00
19128;BME280;9696;53.686;10.094;2023-06-04T07:10:41;102079.16;;;16.58;100.00
19128;BME280;9696;53.686;10.094;2023-06-04T07:13:10;102075.09;;;16.64;100.00
19128;BME280;9696;53.686;10.094;2023-06-04T07:15:39;102080.91;;;16.48;100.00
19128;BME280;9696;53.686;10.094;2023-06-04T07:18:10;102079.53;;;16.54;100.00
19128;BME280;9696;53.686;10.094;2023-06-04T07:20:39;102076.78;;;16.65;100.00
19128;BME280;9696;53.686;10.094;2023-06-04T07:23:08;102071.75;;;16.81;100.00
19128;BME280;9696;53.686;10.094;2023-06-04T07:25:37;102066.88;;;17.61;100.00
19128;BME280;9696;53.686;10.094;2023-06-04T07:28:06;102065.72;;;17.08;100.00
19128;BME280;9696;53.686;10.094;2023-06-04T07:30:35;102066.13;;;17.22;100.00
19128;BME280;9696;53.686;10.094;2023-06-04T07:33:06;102076.06;;;17.01;100.00
19128;BME280;9696;53.686;10.094;2023-06-04T07:35:37;102065.72;;;18.01;100.00
19128;BME280;9696;53.686;10.094;2023-06-04T07:38:06;102073.44;;;17.94;100.00
19128;BME280;9696;53.686;10.094;2023-06-04T07:40:35;102061.41;;;17.63;100.00
19128;BME280;9696;53.686;10.094;2023-06-04T07:43:04;102059.59;;;17.63;100.00
19128;BME280;9696;53.686;10.094;2023-06-04T07:45:33;102067.28;;;17.10;100.00
19128;BME280;9696;53.686;10.094;2023-06-04T07:48:03;102060.97;;;17.21;100.00
19128;BME280;9696;53.686;10.094;2023-06-04T07:50:32;102054.78;;;18.49;100.00
19128;BME280;9696;53.686;10.094;2023-06-04T07:53:06;102058.22;;;18.14;100.00
19128;BME280;9696;53.686;10.094;2023-06-04T07:55:35;102054.75;;;18.76;100.00
19128;BME280;9696;53.686;10.094;2023-06-04T07:58:04;102052.22;;;18.92;100.00
19128;BME280;9696;53.686;10.094;2023-06-04T08:00:34;102052.75;;;19.21;100.00
19128;BME280;9696;53.686;10.094;2023-06-04T08:03:03;102055.53;;;18.41;100.00
19128;BME280;9696;53.686;10.094;2023-06-04T08:05:33;102059.75;;;19.05;100.00
19128;BME280;9696;53.686;10.094;2023-06-04T08:08:04;102056.16;;;19.32;97.62
19128;BME280;9696;53.686;10.094;2023-06-04T08:10:34;102063.13;;;19.33;99.24
19128;BME280;9696;53.686;10.094;2023-06-04T08:13:03;102061.66;;;19.38;97.03
19128;BME280;9696;53.686;10.094;2023-06-04T08:15:32;102057.91;;;18.62;100.00
19128;BME280;9696;53.686;10.094;2023-06-04T08:18:01;102065.25;;;19.03;100.00
19128;BME280;9696;53.686;10.094;2023-06-04T08:20:30;102063.69;;;19.18;100.00
19128;BME280;9696;53.686;10.094;2023-06-04T08:22:59;102070.19;;;19.16;99.31
19128;BME280;9696;53.686;10.094;2023-06-04T08:25:30;102053.25;;;19.43;96.10
19128;BME280;9696;53.686;10.094;2023-06-04T08:27:59;102055.03;;;18.55;99.06
19128;BME280;9696;53.686;10.094;2023-06-04T08:30:28;102058.53;;;19.17;97.45
19128;BME280;9696;53.686;10.094;2023-06-04T08:32:57;102060.13;;;19.95;91.84
19128;BME280;9696;53.686;10.094;2023-06-04T08:35:26;102062.06;;;19.25;89.04
19128;BME280;9696;53.686;10.094;2023-06-04T08:37:56;102069.69;;;19.20;93.54
19128;BME280;9696;53.686;10.094;2023-06-04T08:40:25;102063.97;;;18.36;93.32
19128;BME280;9696;53.686;10.094;2023-06-04T08:42:56;102067.25;;;17.76;97.49
19128;BME280;9696;53.686;10.094;2023-06-04T08:45:27;102056.09;;;18.80;92.57
19128;BME280;9696;53.686;10.094;2023-06-04T08:47:57;102059.59;;;19.50;91.14
19128;BME280;9696;53.686;10.094;2023-06-04T08:50:27;102059.56;;;19.84;91.14
19128;BME280;9696;53.686;10.094;2023-06-04T08:52:56;102062.31;;;19.58;82.30
19128;BME280;9696;53.686;10.094;2023-06-04T08:55:26;102058.41;;;20.28;75.77
19128;BME280;9696;53.686;10.094;2023-06-04T08:57:57;102056.91;;;19.84;77.08
19128;BME280;9696;53.686;10.094;2023-06-04T09:00:28;102056.88;;;20.17;73.06
19128;BME280;9696;53.686;10.094;2023-06-04T09:02:57;102053.94;;;20.37;70.57
19128;BME280;9696;53.686;10.094;2023-06-04T09:05:26;102051.19;;;20.12;71.96
19128;BME280;9696;53.686;10.094;2023-06-04T09:07:56;102064.78;;;19.93;71.59
19128;BME280;9696;53.686;10.094;2023-06-04T09:10:29;102062.34;;;20.16;64.54
19128;BME280;9696;53.686;10.094;2023-06-04T09:13:02;102073.91;;;19.83;72.02
19128;BME280;9696;53.686;10.094;2023-06-04T09:15:32;102066.94;;;20.40;69.96
19128;BME280;9696;53.686;10.094;2023-06-04T09:18:01;102069.16;;;21.01;62.59
19128;BME280;9696;53.686;10.094;2023-06-04T09:20:30;102071.16;;;19.66;71.65
19128;BME280;9696;53.686;10.094;2023-06-04T09:23:00;102075.47;;;19.59;77.19
19128;BME280;9696;53.686;10.094;2023-06-04T09:25:29;102075.13;;;20.38;68.14
19128;BME280;9696;53.686;10.094;2023-06-04T09:28:07;102073.81;;;20.75;65.19
19128;BME280;9696;53.686;10.094;2023-06-04T09:30:36;102075.84;;;20.97;59.90
19128;BME280;9696;53.686;10.094;2023-06-04T09:33:09;102080.34;;;20.88;63.75
19128;BME280;9696;53.686;10.094;2023-06-04T09:35:40;102077.78;;;20.54;61.02
19128;BME280;9696;53.686;10.094;2023-06-04T09:38:09;102068.50;;;21.23;58.38
19128;BME280;9696;53.686;10.094;2023-06-04T09:40:38;102087.13;;;20.42;60.18
19128;BME280;9696;53.686;10.094;2023-06-04T09:43:11;102072.31;;;20.72;64.21
19128;BME280;9696;53.686;10.094;2023-06-04T09:45:50;102078.16;;;20.84;64.70
19128;BME280;9696;53.686;10.094;2023-06-04T09:48:20;102079.50;;;20.80;64.22
19128;BME280;9696;53.686;10.094;2023-06-04T09:50:49;102078.50;;;20.81;63.40
19128;BME280;9696;53.686;10.094;2023-06-04T09:53:20;102068.97;;;20.86;63.53
19128;BME280;9696;53.686;10.094;2023-06-04T09:55:59;102074.66;;;21.24;63.59
19128;BME280;9696;53.686;10.094;2023-06-04T09:58:30;102064.78;;;21.48;60.34
19128;BME280;9696;53.686;10.094;2023-06-04T10:01:01;102063.66;;;21.74;63.57
19128;BME280;9696;53.686;10.094;2023-06-04T10:03:32;102057.53;;;21.57;58.28
19128;BME280;9696;53.686;10.094;2023-06-04T10:06:03;102059.09;;;21.98;53.90
19128;BME280;9696;53.686;10.094;2023-06-04T10:08:33;102064.59;;;21.50;58.16
19128;BME280;9696;53.686;10.094;2023-06-04T10:11:03;102061.31;;;21.32;54.30
19128;BME280;9696;53.686;10.094;2023-06-04T10:13:47;102060.13;;;21.10;59.23
19128;BME280;9696;53.686;10.094;2023-06-04T10:16:18;102059.91;;;21.60;60.11
19128;BME280;9696;53.686;10.094;2023-06-04T10:19:04;102060.13;;;21.34;61.05
19128;BME280;9696;53.686;10.094;2023-06-04T10:21:33;102055.22;;;21.54;56.75
19128;BME280;9696;53.686;10.094;2023-06-04T10:24:04;102062.50;;;20.73;64.49
19128;BME280;9696;53.686;10.094;2023-06-04T10:26:34;102062.34;;;21.70;60.18
19128;BME280;9696;53.686;10.094;2023-06-04T10:29:06;102051.44;;;21.95;61.36
19128;BME280;9696;53.686;10.094;2023-06-04T10:31:36;102055.78;;;22.50;58.67
19128;BME280;9696;53.686;10.094;2023-06-04T10:34:06;102054.25;;;21.47;53.09
19128;BME280;9696;53.686;10.094;2023-06-04T10:36:43;102050.31;;;21.74;53.26
19128;BME280;9696;53.686;10.094;2023-06-04T10:39:13;102050.22;;;22.29;58.30
19128;BME280;9696;53.686;10.094;2023-06-04T10:41:42;102051.56;;;22.25;67.28
19128;BME280;9696;53.686;10.094;2023-06-04T10:44:13;102057.66;;;22.41;59.94
19128;BME280;9696;53.686;10.094;2023-06-04T10:46:43;102062.88;;;22.12;65.67
19128;BME280;9696;53.686;10.094;2023-06-04T10:49:12;102053.03;;;22.58;58.09
19128;BME280;9696;53.686;10.094;2023-06-04T10:51:42;102063.00;;;22.19;62.14
19128;BME280;9696;53.686;10.094;2023-06-04T10:54:23;102040.66;;;22.57;56.15
19128;BME280;9696;53.686;10.094;2023-06-04T10:56:53;102053.25;;;22.79;54.29
19128;BME280;9696;53.686;10.094;2023-06-04T10:59:24;102053.56;;;22.53;53.19
19128;BME280;9696;53.686;10.094;2023-06-04T11:02:05;102070.97;;;22.49;50.91
19128;BME280;9696;53.686;10.094;2023-06-04T11:04:35;102063.34;;;22.16;53.07
19128;BME280;9696;53.686;10.094;2023-06-04T11:07:06;102063.31;;;22.24;51.40
19128;BME280;9696;53.686;10.094;2023-06-04T11:09:47;102065.59;;;22.80;51.96
19128;BME280;9696;53.686;10.094;2023-06-04T11:12:17;102058.31;;;22.66;50.27
19128;BME280;9696;53.686;10.094;2023-06-04T11:14:55;102058.78;;;22.92;49.32
19128;BME280;9696;53.686;10.094;2023-06-04T11:17:24;102055.09;;;22.25;50.83
19128;BME280;9696;53.686;10.094;2023-06-04T11:19:54;102053.78;;;22.44;54.54
19128;BME280;9696;53.686;10.094;2023-06-04T11:22:24;102058.50;;;22.42;52.92
19128;BME280;9696;53.686;10.094;2023-06-04T11:24:56;102054.56;;;22.98;47.52
19128;BME280;9696;53.686;10.094;2023-06-04T11:27:27;102060.84;;;22.90;48.37
19128;BME280;9696;53.686;10.094;2023-06-04T11:30:07;102059.03;;;21.68;49.50
19128;BME280;9696;53.686;10.094;2023-06-04T11:32:37;102048.81;;;22.64;47.14
19128;BME280;9696;53.686;10.094;2023-06-04T11:35:07;102040.97;;;22.62;47.65
19128;BME280;9696;53.686;10.094;2023-06-04T11:37:36;102045.69;;;23.64;46.81
19128;BME280;9696;53.686;10.094;2023-06-04T11:40:15;102040.06;;;24.24;41.77
19128;BME280;9696;53.686;10.094;2023-06-04T11:42:46;102041.78;;;23.67;43.73
19128;BME280;9696;53.686;10.094;2023-06-04T11:45:19;102034.59;;;23.82;49.76
19128;BME280;9696;53.686;10.094;2023-06-04T11:47:49;102039.44;;;23.05;47.68
19128;BME280;9696;53.686;10.094;2023-06-04T11:50:19;102036.06;;;23.84;45.67
19128;BME280;9696;53.686;10.094;2023-06-04T11:52:48;102034.06;;;23.57;43.17
19128;BME280;9696;53.686;10.094;2023-06-04T11:55:17;102032.19;;;23.72;47.17
19128;BME280;9696;53.686;10.094;2023-06-04T11:57:49;102031.63;;;23.18;48.50
19128;BME280;9696;53.686;10.094;2023-06-04T12:00:20;102039.72;;;23.10;45.53
19128;BME280;9696;53.686;10.094;2023-06-04T12:02:51;102038.19;;;23.30;44.58
19128;BME280;9696;53.686;10.094;2023-06-04T12:05:23;102040.94;;;23.37;43.99
19128;BME280;9696;53.686;10.094;2023-06-04T12:07:52;102034.16;;;22.60;48.27
19128;BME280;9696;53.686;10.094;2023-06-04T12:10:37;102038.84;;;23.76;45.06
19128;BME280;9696;53.686;10.094;2023-06-04T12:13:07;102041.41;;;23.26;44.22
19128;BME280;9696;53.686;10.094;2023-06-04T12:15:37;102037.78;;;23.04;47.77
19128;BME280;9696;53.686;10.094;2023-06-04T12:18:06;102051.66;;;23.37;43.70
19128;BME280;9696;53.686;10.094;2023-06-04T12:20:38;102034.88;;;24.08;42.66
19128;BME280;9696;53.686;10.094;2023-06-04T12:23:07;102037.34;;;22.78;43.92
19128;BME280;9696;53.686;10.094;2023-06-04T12:25:40;102037.31;;;21.71;49.89
19128;BME280;9696;53.686;10.094;2023-06-04T12:28:18;102032.44;;;23.92;43.06
19128;BME280;9696;53.686;10.094;2023-06-04T12:30:49;102042.53;;;23.75;42.76
19128;BME280;9696;53.686;10.094;2023-06-04T12:33:28;102033.47;;;23.76;41.72
19128;BME280;9696;53.686;10.094;2023-06-04T12:35:57;102037.91;;;23.40;42.25
19128;BME280;9696;53.686;10.094;2023-06-04T12:38:26;102027.41;;;22.86;40.81
19128;BME280;9696;53.686;10.094;2023-06-04T12:40:55;102028.97;;;22.58;47.38
19128;BME280;9696;53.686;10.094;2023-06-04T12:43:25;102026.03;;;22.90;46.06
19128;BME280;9696;53.686;10.094;2023-06-04T12:45:55;102021.22;;;24.03;45.45
19128;BME280;9696;53.686;10.094;2023-06-04T12:48:24;102024.66;;;23.97;45.29
19128;BME280;9696;53.686;10.094;2023-06-04T12:50:54;102020.31;;;24.32;40.47
19128;BME280;9696;53.686;10.094;2023-06-04T12:53:23;102024.13;;;23.28;46.24
19128;BME280;9696;53.686;10.094;2023-06-04T12:55:52;102019.38;;;23.53;44.80
19128;BME280;9696;53.686;10.094;2023-06-04T12:58:21;102016.09;;;23.72;44.36
19128;BME280;9696;53.686;10.094;2023-06-04T13:00:50;102017.50;;;23.68;45.32
19128;BME280;9696;53.686;10.094;2023-06-04T13:03:20;102025.28;;;23.48;46.67
19128;BME280;9696;53.686;10.094;2023-06-04T13:05:49;102020.53;;;22.69;45.12